createdAt,value
2018-02-15T00:01:07.640Z,66.73
2018-02-15T00:02:07.547Z,66.73
2018-02-15T00:04:00.799Z,66.53
2018-02-15T00:05:00.721Z,66.44
2018-02-15T00:06:53.989Z,66.53
2018-02-15T00:07:53.891Z,66.44
2018-02-15T00:09:47.150Z,66.44
2018-02-15T00:10:47.059Z,66.63
2018-02-15T00:12:40.326Z,66.44
2018-02-15T00:13:40.233Z,65.97
2018-02-15T00:15:33.479Z,65.91
2018-02-15T00:16:33.407Z,65.78
2018-02-15T00:18:26.672Z,65.97
2018-02-15T00:19:26.580Z,65.97
2018-02-15T00:21:19.848Z,66.09
2018-02-15T00:22:19.755Z,65.97
2018-02-15T00:24:13.001Z,66.35
2018-02-15T00:25:12.928Z,66.16
2018-02-15T00:27:06.194Z,66.25
2018-02-15T00:28:06.103Z,66.25
2018-02-15T00:29:59.407Z,66.28
2018-02-15T00:30:59.332Z,66.53
2018-02-15T00:32:52.599Z,66.92
2018-02-15T00:33:52.506Z,66.73
2018-02-15T00:35:45.754Z,66.67
2018-02-15T00:36:45.682Z,66.44
2018-02-15T00:38:38.951Z,66.53
2018-02-15T00:39:38.856Z,66.53
2018-02-15T00:41:32.125Z,66.19
2018-02-15T00:42:32.032Z,66.00
2018-02-15T00:44:25.405Z,66.09
2018-02-15T00:45:25.330Z,66.28
2018-02-15T00:47:18.598Z,66.28
2018-02-15T00:48:18.504Z,66.38
2018-02-15T00:50:11.757Z,65.91
2018-02-15T00:51:11.682Z,65.97
2018-02-15T00:53:04.953Z,65.53
2018-02-15T00:54:04.855Z,65.53
2018-02-15T00:55:58.110Z,65.81
2018-02-15T00:56:58.030Z,65.72
2018-02-15T00:58:51.300Z,65.81
2018-02-15T00:59:51.206Z,65.53
2018-02-15T01:01:44.474Z,65.44
2018-02-15T01:02:44.381Z,65.25
2018-02-15T01:04:37.633Z,65.25
2018-02-15T01:05:37.557Z,65.81
2018-02-15T01:07:30.825Z,65.53
2018-02-15T01:08:30.730Z,65.25
2018-02-15T01:10:23.980Z,64.96
2018-02-15T01:11:23.907Z,65.15
2018-02-15T01:13:17.172Z,64.58
2018-02-15T01:14:17.080Z,64.20
2018-02-15T01:16:10.334Z,64.11
2018-02-15T01:17:10.257Z,64.30
2018-02-15T01:19:03.525Z,64.20
2018-02-15T01:20:03.433Z,63.73
2018-02-15T01:21:56.697Z,63.64
2018-02-15T01:22:56.604Z,63.54
2018-02-15T01:24:49.854Z,63.54
2018-02-15T01:25:49.779Z,62.97
2018-02-15T01:27:43.049Z,62.88
2018-02-15T01:28:42.954Z,63.07
2018-02-15T01:30:36.194Z,63.16
2018-02-15T01:31:36.121Z,62.59
2018-02-15T01:33:29.426Z,62.50
2018-02-15T01:34:29.331Z,62.78
2018-02-15T01:36:22.581Z,62.69
2018-02-15T01:37:22.509Z,62.21
2018-02-15T01:39:15.776Z,62.12
2018-02-15T01:40:15.682Z,61.93
2018-02-15T01:42:08.950Z,61.74
2018-02-15T01:43:08.858Z,61.83
2018-02-15T01:45:02.109Z,61.46
2018-02-15T01:46:02.034Z,61.18
2018-02-15T01:47:55.426Z,61.08
2018-02-15T01:48:55.330Z,60.89
2018-02-15T01:50:48.579Z,60.89
2018-02-15T01:51:48.504Z,60.80
2018-02-15T01:53:41.776Z,60.61
2018-02-15T01:54:41.681Z,60.51
2018-02-15T01:56:34.931Z,60.22
2018-02-15T01:57:34.856Z,60.13
2018-02-15T01:59:28.127Z,59.84
2018-02-15T02:00:28.032Z,60.03
2018-02-15T02:02:21.423Z,59.56
2018-02-15T02:03:21.327Z,59.66
2018-02-15T02:05:14.578Z,59.56
2018-02-15T02:06:14.503Z,59.84
2018-02-15T02:08:07.788Z,59.38
2018-02-15T02:09:07.691Z,59.38
2018-02-15T02:11:00.938Z,59.47
2018-02-15T02:12:00.867Z,59.19
2018-02-15T02:13:54.136Z,58.90
2018-02-15T02:14:54.041Z,58.71
2018-02-15T02:16:47.407Z,59.19
2018-02-15T02:17:47.329Z,59.38
2018-02-15T02:19:40.603Z,59.09
2018-02-15T02:20:40.514Z,59.09
2018-02-15T02:22:33.778Z,58.90
2018-02-15T02:23:33.688Z,58.90
2018-02-15T02:25:26.938Z,58.71
2018-02-15T02:26:26.866Z,58.90
2018-02-15T02:28:20.131Z,58.90
2018-02-15T02:29:20.040Z,59.00
2018-02-15T02:31:13.405Z,58.71
2018-02-15T02:32:13.330Z,58.52
2018-02-15T02:34:06.597Z,59.00
2018-02-15T02:35:06.505Z,59.00
2018-02-15T02:36:59.754Z,58.81
2018-02-15T02:37:59.680Z,58.43
2018-02-15T02:39:52.954Z,58.71
2018-02-15T02:40:52.861Z,59.00
2018-02-15T02:42:46.130Z,58.43
2018-02-15T02:43:46.040Z,58.81
2018-02-15T02:45:39.410Z,59.00
2018-02-15T02:46:39.332Z,58.71
2018-02-15T02:48:32.599Z,58.81
2018-02-15T02:49:32.507Z,58.24
2018-02-15T02:51:25.756Z,58.14
2018-02-15T02:52:25.682Z,58.33
2018-02-15T02:54:18.951Z,58.52
2018-02-15T02:55:18.856Z,58.24
2018-02-15T02:57:12.112Z,58.33
2018-02-15T02:58:12.040Z,58.24
2018-02-15T03:00:05.426Z,57.86
2018-02-15T03:01:05.334Z,58.14
2018-02-15T03:02:58.602Z,58.14
2018-02-15T03:03:58.514Z,58.14
2018-02-15T03:05:51.758Z,57.95
2018-02-15T03:06:51.684Z,58.14
2018-02-15T03:08:44.952Z,58.14
2018-02-15T03:09:44.858Z,58.43
2018-02-15T03:11:38.108Z,58.14
2018-02-15T03:12:38.034Z,58.33
2018-02-15T03:14:31.424Z,58.33
2018-02-15T03:15:31.330Z,58.33
2018-02-15T03:17:24.580Z,57.86
2018-02-15T03:18:24.506Z,58.14
2018-02-15T03:20:17.777Z,58.14
2018-02-15T03:21:17.682Z,57.95
2018-02-15T03:23:10.951Z,57.86
2018-02-15T03:24:10.863Z,57.76
2018-02-15T03:26:04.109Z,57.95
2018-02-15T03:27:04.038Z,57.48
2018-02-15T03:28:57.304Z,57.48
2018-02-15T03:29:57.212Z,57.57
2018-02-15T03:31:50.468Z,57.86
2018-02-15T03:32:50.389Z,57.48
2018-02-15T03:34:43.660Z,57.20
2018-02-15T03:35:43.567Z,57.57
2018-02-15T03:37:36.819Z,57.39
2018-02-15T03:38:36.739Z,57.29
2018-02-15T03:40:30.005Z,57.20
2018-02-15T03:41:29.909Z,57.39
2018-02-15T03:43:23.180Z,56.63
2018-02-15T03:44:23.086Z,57.39
2018-02-15T03:46:16.339Z,57.01
2018-02-15T03:47:16.262Z,57.10
2018-02-15T03:49:09.642Z,56.72
2018-02-15T03:50:09.438Z,56.63
2018-02-15T03:52:02.688Z,56.91
2018-02-15T03:53:02.614Z,56.63
2018-02-15T03:54:55.884Z,56.53
2018-02-15T03:55:55.794Z,56.25
2018-02-15T03:57:49.042Z,56.25
2018-02-15T03:58:48.966Z,56.44
2018-02-15T04:00:42.352Z,56.91
2018-02-15T04:01:42.136Z,56.72
2018-02-15T04:03:35.424Z,56.63
2018-02-15T04:04:35.332Z,56.34
2018-02-15T04:06:28.583Z,56.15
2018-02-15T04:07:28.506Z,56.06
2018-02-15T04:09:21.777Z,56.06
2018-02-15T04:10:21.682Z,56.25
2018-02-15T04:12:14.933Z,56.25
2018-02-15T04:13:14.858Z,55.87
2018-02-15T04:15:08.126Z,55.87
2018-02-15T04:16:08.033Z,56.06
2018-02-15T04:18:01.443Z,55.21
2018-02-15T04:19:01.335Z,55.49
2018-02-15T04:20:54.585Z,55.40
2018-02-15T04:21:54.512Z,55.24
2018-02-15T04:23:47.782Z,55.14
2018-02-15T04:24:47.689Z,55.02
2018-02-15T04:26:40.944Z,55.21
2018-02-15T04:27:40.870Z,54.38
2018-02-15T04:29:34.138Z,54.83
2018-02-15T04:30:34.043Z,54.10
2018-02-15T04:32:27.409Z,54.10
2018-02-15T04:33:27.329Z,53.91
2018-02-15T04:35:20.600Z,53.53
2018-02-15T04:36:20.505Z,53.63
2018-02-15T04:38:13.784Z,53.15
2018-02-15T04:39:13.683Z,53.06
2018-02-15T04:41:07.045Z,53.15
2018-02-15T04:42:06.858Z,53.06
2018-02-15T04:44:00.130Z,53.34
2018-02-15T04:45:00.037Z,53.91
2018-02-15T04:46:53.409Z,54.67
2018-02-15T04:47:53.333Z,55.14
2018-02-15T04:49:46.608Z,61.11
2018-02-15T04:50:46.516Z,64.52
2018-02-15T04:52:39.761Z,69.13
2018-02-15T04:53:39.689Z,70.26
2018-02-15T04:55:32.961Z,73.30
2018-02-15T04:56:32.864Z,75.19
2018-02-15T04:58:26.148Z,77.84
2018-02-15T04:59:26.043Z,78.31
2018-02-15T05:01:19.404Z,81.44
2018-02-15T05:02:19.330Z,82.72
2018-02-15T05:04:12.597Z,86.04
2018-02-15T05:05:12.505Z,87.46
2018-02-15T05:07:05.756Z,90.67
2018-02-15T05:08:05.683Z,92.57
2018-02-15T05:09:58.955Z,94.18
2018-02-15T05:10:58.860Z,94.37
2018-02-15T05:12:52.219Z,95.21
2018-02-15T05:13:52.034Z,95.50
2018-02-15T05:15:45.420Z,96.50
2018-02-15T05:16:45.328Z,96.64
2018-02-15T05:18:38.610Z,96.88
2018-02-15T05:19:38.509Z,97.44
2018-02-15T05:21:31.757Z,97.63
2018-02-15T05:22:31.684Z,98.29
2018-02-15T05:24:24.951Z,98.48
2018-02-15T05:25:24.858Z,98.01
2018-02-15T05:27:18.104Z,98.67
2018-02-15T05:28:18.032Z,99.90
2018-02-15T05:30:11.423Z,99.52
2018-02-15T05:31:11.328Z,99.99
2018-02-15T05:33:04.688Z,99.99
2018-02-15T05:34:04.501Z,99.99
2018-02-15T05:35:57.766Z,99.99
2018-02-15T05:36:57.673Z,99.99
2018-02-15T05:38:51.941Z,99.99
2018-02-15T05:39:51.846Z,99.99
2018-02-15T05:41:45.098Z,99.99
2018-02-15T05:42:45.023Z,99.99
2018-02-15T05:44:38.292Z,99.99
2018-02-15T05:45:38.195Z,99.99
2018-02-15T05:47:31.445Z,99.99
2018-02-15T05:48:31.374Z,99.99
2018-02-15T05:50:24.642Z,99.99
2018-02-15T05:51:24.545Z,99.99
2018-02-15T05:53:17.792Z,99.99
2018-02-15T05:54:17.719Z,99.99
2018-02-15T05:56:10.984Z,99.99
2018-02-15T05:57:10.890Z,99.99
2018-02-15T05:59:04.154Z,99.99
2018-02-15T06:00:04.063Z,99.99
2018-02-15T06:01:57.438Z,99.99
2018-02-15T06:02:57.326Z,99.99
2018-02-15T06:04:50.594Z,99.99
2018-02-15T06:05:50.498Z,99.99
2018-02-15T06:07:43.744Z,99.99
2018-02-15T06:08:43.669Z,99.99
2018-02-15T06:10:36.935Z,99.99
2018-02-15T06:11:36.841Z,99.99
2018-02-15T06:13:30.093Z,99.99
2018-02-15T06:14:30.019Z,99.99
2018-02-15T06:16:23.394Z,99.99
2018-02-15T06:17:23.186Z,99.99
2018-02-15T06:19:16.453Z,99.99
2018-02-15T06:20:16.359Z,99.99
2018-02-15T06:22:09.609Z,99.99
2018-02-15T06:23:09.532Z,99.99
2018-02-15T06:25:02.797Z,99.99
2018-02-15T06:26:02.704Z,99.99
2018-02-15T06:27:55.949Z,99.99
2018-02-15T06:28:55.875Z,99.99
2018-02-15T06:30:49.141Z,99.99
2018-02-15T06:31:49.048Z,99.99
2018-02-15T06:33:42.406Z,99.99
2018-02-15T06:34:42.217Z,99.99
2018-02-15T06:36:35.487Z,99.99
2018-02-15T06:37:35.394Z,99.99
2018-02-15T06:39:28.662Z,99.99
2018-02-15T06:40:28.565Z,99.99
2018-02-15T06:42:21.812Z,99.99
2018-02-15T06:43:21.736Z,99.99
2018-02-15T06:45:15.005Z,99.99
2018-02-15T06:46:14.907Z,99.99
2018-02-15T06:48:08.158Z,99.99
2018-02-15T06:49:08.080Z,99.99
2018-02-15T06:51:01.462Z,99.99
2018-02-15T06:52:01.326Z,99.99
2018-02-15T06:53:54.576Z,99.99
2018-02-15T06:54:54.498Z,99.99
2018-02-15T06:56:47.763Z,99.99
2018-02-15T06:57:47.668Z,99.99
2018-02-15T06:59:40.936Z,99.99
2018-02-15T07:00:40.845Z,99.99
2018-02-15T07:02:34.202Z,99.99
2018-02-15T07:03:34.014Z,99.99
2018-02-15T07:05:27.309Z,99.99
2018-02-15T07:06:27.178Z,99.99
2018-02-15T07:08:20.428Z,99.99
2018-02-15T07:09:20.353Z,99.99
2018-02-15T07:11:13.734Z,99.99
2018-02-15T07:12:13.525Z,99.99
2018-02-15T07:14:06.884Z,99.99
2018-02-15T07:15:06.696Z,99.99
2018-02-15T07:16:59.962Z,99.99
2018-02-15T07:17:59.867Z,99.99
2018-02-15T07:19:53.248Z,99.99
2018-02-15T07:20:53.032Z,99.99
2018-02-15T07:22:46.278Z,99.99
2018-02-15T07:23:46.203Z,99.99
2018-02-15T07:25:39.473Z,99.99
2018-02-15T07:26:39.378Z,99.99
2018-02-15T07:28:32.641Z,99.99
2018-02-15T07:29:32.565Z,99.99
2018-02-15T07:31:25.832Z,99.99
2018-02-15T07:32:25.739Z,99.99
2018-02-15T07:34:18.985Z,99.99
2018-02-15T07:35:18.910Z,99.99
2018-02-15T07:37:12.192Z,99.99
2018-02-15T07:38:12.090Z,99.99
2018-02-15T07:40:05.421Z,99.99
2018-02-15T07:41:05.329Z,99.99
2018-02-15T07:42:58.670Z,99.99
2018-02-15T07:43:58.595Z,99.99
2018-02-15T07:45:51.861Z,99.99
2018-02-15T07:46:51.764Z,99.99
2018-02-15T07:48:45.018Z,99.99
2018-02-15T07:49:44.940Z,99.99
2018-02-15T07:51:38.217Z,99.99
2018-02-15T07:52:38.115Z,99.99
2018-02-15T07:54:31.416Z,99.99
2018-02-15T07:55:31.328Z,99.99
2018-02-15T07:57:25.708Z,99.99
2018-02-15T07:58:25.501Z,99.99
2018-02-15T08:00:18.757Z,99.99
2018-02-15T08:01:18.667Z,99.99
2018-02-15T08:03:11.910Z,99.99
2018-02-15T08:04:11.835Z,99.99
2018-02-15T08:06:05.102Z,99.99
2018-02-15T08:07:05.012Z,99.99
2018-02-15T08:08:58.365Z,99.99
2018-02-15T08:09:58.182Z,99.99
2018-02-15T08:11:51.446Z,99.99
2018-02-15T08:12:51.356Z,99.99
2018-02-15T08:14:44.601Z,99.99
2018-02-15T08:15:44.524Z,99.99
2018-02-15T08:17:37.939Z,99.99
2018-02-15T08:18:37.684Z,99.99
2018-02-15T08:20:30.956Z,99.99
2018-02-15T08:21:30.857Z,99.99
2018-02-15T08:23:24.094Z,99.99
2018-02-15T08:24:24.021Z,99.99
2018-02-15T08:26:17.274Z,99.99
2018-02-15T08:27:17.180Z,99.99
2018-02-15T08:29:10.434Z,99.99
2018-02-15T08:30:10.356Z,99.99
2018-02-15T08:32:03.613Z,99.99
2018-02-15T08:33:03.517Z,99.99
2018-02-15T08:34:56.753Z,99.99
2018-02-15T08:35:56.674Z,99.99
2018-02-15T08:37:49.935Z,99.99
2018-02-15T08:38:49.838Z,99.99
2018-02-15T08:40:43.094Z,99.99
2018-02-15T08:41:42.999Z,99.99
2018-02-15T08:43:36.361Z,99.99
2018-02-15T08:44:36.159Z,99.99
2018-02-15T08:46:29.427Z,99.99
2018-02-15T08:47:29.334Z,99.99
2018-02-15T08:49:22.570Z,99.99
2018-02-15T08:50:22.495Z,99.99
2018-02-15T08:52:15.782Z,99.99
2018-02-15T08:53:15.658Z,99.99
2018-02-15T08:55:08.903Z,99.99
2018-02-15T08:56:08.828Z,99.99
2018-02-15T08:58:02.082Z,99.99
2018-02-15T08:59:01.999Z,99.99
2018-02-15T09:00:55.255Z,99.99
2018-02-15T09:01:55.160Z,99.99
2018-02-15T09:03:48.399Z,99.99
2018-02-15T09:04:48.321Z,99.99
2018-02-15T09:06:41.585Z,99.99
2018-02-15T09:07:41.485Z,99.99
2018-02-15T09:09:34.743Z,99.99
2018-02-15T09:10:34.658Z,99.99
2018-02-15T09:12:27.930Z,99.99
2018-02-15T09:13:27.834Z,99.99
2018-02-15T09:15:21.070Z,99.99
2018-02-15T09:16:20.996Z,99.99
2018-02-15T09:18:14.250Z,99.99
2018-02-15T09:19:14.154Z,99.99
2018-02-15T09:21:07.534Z,99.99
2018-02-15T09:22:07.337Z,99.99
2018-02-15T09:24:00.567Z,99.99
2018-02-15T09:25:00.496Z,99.99
2018-02-15T09:26:53.875Z,99.99
2018-02-15T09:27:53.660Z,99.99
2018-02-15T09:29:46.904Z,99.99
2018-02-15T09:30:46.822Z,99.99
2018-02-15T09:32:40.097Z,99.99
2018-02-15T09:33:39.998Z,99.99
2018-02-15T09:35:33.234Z,99.99
2018-02-15T09:36:33.155Z,99.99
2018-02-15T09:38:26.416Z,99.99
2018-02-15T09:39:26.321Z,99.99
2018-02-15T09:41:19.579Z,99.99
2018-02-15T09:42:19.485Z,99.99
2018-02-15T09:44:12.849Z,99.99
2018-02-15T09:45:12.647Z,99.99
2018-02-15T09:47:05.908Z,99.99
2018-02-15T09:48:05.813Z,99.99
2018-02-15T09:49:59.174Z,99.99
2018-02-15T09:50:58.989Z,99.99
2018-02-15T09:52:52.253Z,99.99
2018-02-15T09:53:52.149Z,99.99
2018-02-15T09:55:45.514Z,99.99
2018-02-15T09:56:45.338Z,99.99
2018-02-15T09:58:38.598Z,99.99
2018-02-15T09:59:38.501Z,99.99
2018-02-15T10:01:31.887Z,99.99
2018-02-15T10:02:31.665Z,99.99
2018-02-15T10:04:24.906Z,99.99
2018-02-15T10:05:24.830Z,99.99
2018-02-15T10:07:18.089Z,99.99
2018-02-15T10:08:17.996Z,99.99
2018-02-15T10:10:11.236Z,99.99
2018-02-15T10:11:11.163Z,99.99
2018-02-15T10:13:04.422Z,99.99
2018-02-15T10:14:04.328Z,99.99
2018-02-15T10:15:57.745Z,99.99
2018-02-15T10:16:57.513Z,99.99
2018-02-15T10:18:50.773Z,99.99
2018-02-15T10:19:50.679Z,99.99
2018-02-15T10:21:44.063Z,99.99
2018-02-15T10:22:43.841Z,99.99
2018-02-15T10:24:37.084Z,99.99
2018-02-15T10:25:37.011Z,99.99
2018-02-15T10:27:30.261Z,99.99
2018-02-15T10:28:30.175Z,99.99
2018-02-15T10:30:23.576Z,99.99
2018-02-15T10:31:23.502Z,99.99
2018-02-15T10:33:16.773Z,99.99
2018-02-15T10:34:16.681Z,99.99
2018-02-15T10:36:09.927Z,99.99
2018-02-15T10:37:09.849Z,99.99
2018-02-15T10:39:04.119Z,99.99
2018-02-15T10:40:04.029Z,99.99
2018-02-15T10:41:57.294Z,99.99
2018-02-15T10:42:57.197Z,99.99
2018-02-15T10:44:50.436Z,99.99
2018-02-15T10:45:50.360Z,99.99
2018-02-15T10:47:43.742Z,99.99
2018-02-15T10:48:43.540Z,99.99
2018-02-15T10:50:36.786Z,99.99
2018-02-15T10:51:36.710Z,99.99
2018-02-15T10:53:29.965Z,99.99
2018-02-15T10:54:29.876Z,99.99
2018-02-15T10:56:23.118Z,99.99
2018-02-15T10:57:23.043Z,99.99
2018-02-15T10:59:16.300Z,99.99
2018-02-15T11:00:16.217Z,99.99
2018-02-15T11:02:09.595Z,99.99
2018-02-15T11:03:09.501Z,99.99
2018-02-15T11:05:02.743Z,99.99
2018-02-15T11:06:02.669Z,99.99
2018-02-15T11:07:55.929Z,99.99
2018-02-15T11:08:55.834Z,99.99
2018-02-15T11:10:49.199Z,99.99
2018-02-15T11:11:49.002Z,99.99
2018-02-15T11:13:42.264Z,99.99
2018-02-15T11:14:42.170Z,99.99
2018-02-15T11:16:35.568Z,99.99
2018-02-15T11:17:35.498Z,99.99
2018-02-15T11:19:28.756Z,99.99
2018-02-15T11:20:28.663Z,99.99
2018-02-15T11:22:21.926Z,99.99
2018-02-15T11:23:21.831Z,99.99
2018-02-15T11:25:15.085Z,99.99
2018-02-15T11:26:15.010Z,99.99
2018-02-15T11:28:08.271Z,99.99
2018-02-15T11:29:08.177Z,99.99
2018-02-15T11:31:01.571Z,99.99
2018-02-15T11:32:01.504Z,99.99
2018-02-15T11:33:54.761Z,99.99
2018-02-15T11:34:54.668Z,99.99
2018-02-15T11:36:47.907Z,99.99
2018-02-15T11:37:47.835Z,99.99
2018-02-15T11:39:41.093Z,99.99
2018-02-15T11:40:41.001Z,99.99
2018-02-15T11:42:34.259Z,99.99
2018-02-15T11:43:34.166Z,99.99
2018-02-15T11:45:27.445Z,99.99
2018-02-15T11:46:27.330Z,99.99
2018-02-15T11:48:20.595Z,99.99
2018-02-15T11:49:20.499Z,99.99
2018-02-15T11:51:13.751Z,99.99
2018-02-15T11:52:13.678Z,99.99
2018-02-15T11:54:06.939Z,99.99
2018-02-15T11:55:06.846Z,99.99
2018-02-15T11:57:00.088Z,99.99
2018-02-15T11:58:00.025Z,99.99
2018-02-15T11:59:53.398Z,99.99
2018-02-15T12:00:53.185Z,99.99
2018-02-15T12:02:46.446Z,99.99
2018-02-15T12:03:46.352Z,99.99
2018-02-15T12:05:39.591Z,99.99
2018-02-15T12:06:39.517Z,99.99
2018-02-15T12:08:32.780Z,99.99
2018-02-15T12:09:32.688Z,99.99
2018-02-15T12:11:25.926Z,99.99
2018-02-15T12:12:25.857Z,99.99
2018-02-15T12:14:19.111Z,99.99
2018-02-15T12:15:19.018Z,99.99
2018-02-15T12:17:12.259Z,99.99
2018-02-15T12:18:12.185Z,99.99
2018-02-15T12:20:05.467Z,99.99
2018-02-15T12:21:05.359Z,99.99
2018-02-15T12:22:58.667Z,99.99
2018-02-15T12:23:58.580Z,99.99
2018-02-15T12:25:51.819Z,99.99
2018-02-15T12:26:51.741Z,99.99
2018-02-15T12:28:45.012Z,99.99
2018-02-15T12:29:44.941Z,99.99
2018-02-15T12:31:38.162Z,99.99
2018-02-15T12:32:38.086Z,99.99
2018-02-15T12:34:31.429Z,99.99
2018-02-15T12:35:31.334Z,99.99
2018-02-15T12:37:24.576Z,99.99
2018-02-15T12:38:24.501Z,99.99
2018-02-15T12:40:17.767Z,99.99
2018-02-15T12:41:17.668Z,99.99
2018-02-15T12:43:10.931Z,99.99
2018-02-15T12:44:10.839Z,99.99
2018-02-15T12:46:04.199Z,99.99
2018-02-15T12:47:04.007Z,99.99
2018-02-15T12:48:57.263Z,99.99
2018-02-15T12:49:57.169Z,99.99
2018-02-15T12:51:50.414Z,99.99
2018-02-15T12:52:50.340Z,99.99
2018-02-15T12:54:43.599Z,99.99
2018-02-15T12:55:43.507Z,99.99
2018-02-15T12:57:36.752Z,99.99
2018-02-15T12:58:36.676Z,99.99
2018-02-15T13:00:29.941Z,99.99
2018-02-15T13:01:29.846Z,99.99
2018-02-15T13:03:23.110Z,99.99
2018-02-15T13:04:23.015Z,99.99
2018-02-15T13:06:16.256Z,99.99
2018-02-15T13:07:16.181Z,99.99
2018-02-15T13:09:10.293Z,99.99
2018-02-15T13:10:10.203Z,99.99
2018-02-15T13:12:03.443Z,99.99
2018-02-15T13:13:03.372Z,99.99
2018-02-15T13:14:56.753Z,99.99
2018-02-15T13:15:56.541Z,99.99
2018-02-15T13:17:49.782Z,99.99
2018-02-15T13:18:49.712Z,99.99
2018-02-15T13:20:42.972Z,99.99
2018-02-15T13:21:42.882Z,99.99
2018-02-15T13:23:36.140Z,99.99
2018-02-15T13:24:36.054Z,99.99
2018-02-15T13:26:29.413Z,99.99
2018-02-15T13:27:29.334Z,99.99
2018-02-15T13:29:22.721Z,99.99
2018-02-15T13:30:22.502Z,99.99
2018-02-15T13:32:15.745Z,99.99
2018-02-15T13:33:15.671Z,99.99
2018-02-15T13:35:08.968Z,99.99
2018-02-15T13:36:08.850Z,99.99
2018-02-15T13:38:02.091Z,99.99
2018-02-15T13:39:02.014Z,99.99
2018-02-15T13:40:55.902Z,99.99
2018-02-15T13:41:55.186Z,99.99
2018-02-15T13:43:48.457Z,99.99
2018-02-15T13:44:48.367Z,99.99
2018-02-15T13:46:41.613Z,99.99
2018-02-15T13:47:41.540Z,99.99
2018-02-15T13:49:34.803Z,99.99
2018-02-15T13:50:34.708Z,99.99
2018-02-15T13:52:27.948Z,99.99
2018-02-15T13:53:27.876Z,99.99
2018-02-15T13:55:21.140Z,99.99
2018-02-15T13:56:21.046Z,99.99
2018-02-15T13:58:14.289Z,99.99
2018-02-15T13:59:14.217Z,99.99
2018-02-15T14:01:07.480Z,99.99
2018-02-15T14:02:07.389Z,99.99
2018-02-15T14:04:00.646Z,99.99
2018-02-15T14:05:00.559Z,99.99
2018-02-15T14:06:53.921Z,99.99
2018-02-15T14:07:53.725Z,99.99
2018-02-15T14:09:47.000Z,99.99
2018-02-15T14:10:46.906Z,99.99
2018-02-15T14:12:40.150Z,99.99
2018-02-15T14:13:40.078Z,99.99
2018-02-15T14:15:33.426Z,99.99
2018-02-15T14:16:33.337Z,99.99
2018-02-15T14:18:26.574Z,99.99
2018-02-15T14:19:26.504Z,99.99
2018-02-15T14:21:19.884Z,99.99
2018-02-15T14:22:19.671Z,99.99
2018-02-15T14:24:12.938Z,99.99
2018-02-15T14:25:12.839Z,99.99
2018-02-15T14:27:06.080Z,99.99
2018-02-15T14:28:06.008Z,99.99
2018-02-15T14:29:59.271Z,99.99
2018-02-15T14:30:59.179Z,99.99
2018-02-15T14:32:52.423Z,99.99
2018-02-15T14:33:52.349Z,99.99
2018-02-15T14:35:45.611Z,99.99
2018-02-15T14:36:45.518Z,99.99
2018-02-15T14:38:38.760Z,99.99
2018-02-15T14:39:38.687Z,99.99
2018-02-15T14:41:31.993Z,99.99
2018-02-15T14:42:31.855Z,99.99
2018-02-15T14:44:25.132Z,99.99
2018-02-15T14:45:25.024Z,99.99
2018-02-15T14:47:18.267Z,99.99
2018-02-15T14:48:18.196Z,99.99
2018-02-15T14:50:11.457Z,99.99
2018-02-15T14:51:11.366Z,99.99
2018-02-15T14:53:04.616Z,99.99
2018-02-15T14:54:04.542Z,99.99
2018-02-15T14:55:57.807Z,99.99
2018-02-15T14:56:57.715Z,99.99
2018-02-15T14:58:50.957Z,99.99
2018-02-15T14:59:50.885Z,99.99
2018-02-15T15:01:44.157Z,99.99
2018-02-15T15:02:44.066Z,99.99
2018-02-15T15:04:37.426Z,99.99
2018-02-15T15:05:37.339Z,99.99
2018-02-15T15:07:30.588Z,99.99
2018-02-15T15:08:30.518Z,99.99
2018-02-15T15:10:23.779Z,99.99
2018-02-15T15:11:23.688Z,99.99
2018-02-15T15:13:16.941Z,99.99
2018-02-15T15:14:16.870Z,99.99
2018-02-15T15:16:10.144Z,99.99
2018-02-15T15:17:10.053Z,99.99
2018-02-15T15:19:03.409Z,99.99
2018-02-15T15:20:03.336Z,99.99
2018-02-15T15:21:56.607Z,99.99
2018-02-15T15:22:56.518Z,99.99
2018-02-15T15:24:49.791Z,99.99
2018-02-15T15:25:49.700Z,99.99
2018-02-15T15:27:42.981Z,99.99
2018-02-15T15:28:42.909Z,99.99
2018-02-15T15:30:36.180Z,99.99
2018-02-15T15:31:36.082Z,99.99
2018-02-15T15:33:29.446Z,99.99
2018-02-15T15:34:29.336Z,99.99
2018-02-15T15:36:22.607Z,99.99
2018-02-15T15:37:22.517Z,99.99
2018-02-15T15:39:15.770Z,99.99
2018-02-15T15:40:15.700Z,99.99
2018-02-15T15:42:08.974Z,99.99
2018-02-15T15:43:08.885Z,99.99
2018-02-15T15:45:02.158Z,99.99
2018-02-15T15:46:02.065Z,99.99
2018-02-15T15:47:55.409Z,99.99
2018-02-15T15:48:55.338Z,99.99
2018-02-15T15:50:48.726Z,99.99
2018-02-15T15:51:48.561Z,99.99
2018-02-15T15:53:41.840Z,99.99
2018-02-15T15:54:41.768Z,99.99
2018-02-15T15:56:35.042Z,99.99
2018-02-15T15:57:34.951Z,99.99
2018-02-15T15:59:28.203Z,99.99
2018-02-15T16:00:28.125Z,99.99
2018-02-15T16:02:21.428Z,99.99
2018-02-15T16:03:21.337Z,99.99
2018-02-15T16:05:14.614Z,99.99
2018-02-15T16:06:14.522Z,99.99
2018-02-15T16:08:07.776Z,99.99
2018-02-15T16:09:07.706Z,99.99
2018-02-15T16:11:01.092Z,99.99
2018-02-15T16:12:00.888Z,99.99
2018-02-15T16:13:54.141Z,99.99
2018-02-15T16:14:54.071Z,99.99
2018-02-15T16:16:47.431Z,99.99
2018-02-15T16:17:47.343Z,99.99
2018-02-15T16:19:40.593Z,99.99
2018-02-15T16:20:40.527Z,99.99
2018-02-15T16:22:33.797Z,99.99
2018-02-15T16:23:33.708Z,99.99
2018-02-15T16:25:26.986Z,99.99
2018-02-15T16:26:26.890Z,99.99
2018-02-15T16:28:20.145Z,99.99
2018-02-15T16:29:20.095Z,99.99
2018-02-15T16:31:13.479Z,99.99
2018-02-15T16:32:13.341Z,99.99
2018-02-15T16:34:06.586Z,99.99
2018-02-15T16:35:06.513Z,99.99
2018-02-15T16:36:59.781Z,99.99
2018-02-15T16:37:59.688Z,99.99
2018-02-15T16:39:52.931Z,99.99
2018-02-15T16:40:52.858Z,99.99
2018-02-15T16:42:46.130Z,99.99
2018-02-15T16:43:46.041Z,99.99
2018-02-15T16:45:39.433Z,99.99
2018-02-15T16:46:39.347Z,99.99
2018-02-15T16:48:32.708Z,99.99
2018-02-15T16:49:32.513Z,99.99
2018-02-15T16:51:25.823Z,99.99
2018-02-15T16:52:26.300Z,99.99
2018-02-15T16:54:20.024Z,99.99
2018-02-15T16:55:19.987Z,99.99
2018-02-15T16:57:13.201Z,99.99
2018-02-15T16:58:13.128Z,99.99
2018-02-15T17:00:06.281Z,99.99
2018-02-15T17:01:06.208Z,99.99
2018-02-15T17:02:59.475Z,99.99
2018-02-15T17:03:59.380Z,99.99
2018-02-15T17:05:52.647Z,99.99
2018-02-15T17:06:52.556Z,99.99
2018-02-15T17:08:45.801Z,99.99
2018-02-15T17:09:45.729Z,99.99
2018-02-15T17:11:38.993Z,99.99
2018-02-15T17:12:38.899Z,99.99
2018-02-15T17:14:32.156Z,99.99
2018-02-15T17:15:32.090Z,99.99
2018-02-15T17:17:25.433Z,99.99
2018-02-15T17:18:25.339Z,99.99
2018-02-15T17:20:18.599Z,99.99
2018-02-15T17:21:18.515Z,99.99
2018-02-15T17:23:11.789Z,99.99
2018-02-15T17:24:11.698Z,99.99
2018-02-15T17:26:05.084Z,99.99
2018-02-15T17:27:04.883Z,99.99
2018-02-15T17:28:58.115Z,99.99
2018-02-15T17:29:58.044Z,99.99
2018-02-15T17:31:51.431Z,99.99
2018-02-15T17:32:51.381Z,99.99
2018-02-15T17:34:44.646Z,99.99
2018-02-15T17:35:44.624Z,99.99
2018-02-15T17:37:37.889Z,99.99
2018-02-15T17:38:38.362Z,99.99
2018-02-15T17:40:31.033Z,99.99
2018-02-15T17:41:30.938Z,99.99
2018-02-15T17:43:24.273Z,99.99
2018-02-15T17:44:24.055Z,99.99
2018-02-15T17:46:17.429Z,99.99
2018-02-15T17:47:17.341Z,99.99
2018-02-15T17:49:10.586Z,99.99
2018-02-15T17:50:10.513Z,99.99
2018-02-15T17:52:03.896Z,99.99
2018-02-15T17:53:03.684Z,99.99
2018-02-15T17:54:56.930Z,99.99
2018-02-15T17:55:56.865Z,99.99
2018-02-15T17:57:50.120Z,99.99
2018-02-15T17:58:50.031Z,99.99
2018-02-15T18:00:43.412Z,99.99
2018-02-15T18:01:43.340Z,99.99
2018-02-15T18:03:36.607Z,99.99
2018-02-15T18:04:36.519Z,99.99
2018-02-15T18:06:29.789Z,99.99
2018-02-15T18:07:29.692Z,99.99
2018-02-15T18:09:22.947Z,99.99
2018-02-15T18:10:22.864Z,99.99
2018-02-15T18:12:16.128Z,99.99
2018-02-15T18:13:16.041Z,99.99
2018-02-15T18:15:09.408Z,99.99
2018-02-15T18:16:09.338Z,99.99
2018-02-15T18:18:02.599Z,99.99
2018-02-15T18:19:02.510Z,99.99
2018-02-15T18:20:55.754Z,99.99
2018-02-15T18:21:55.680Z,99.99
2018-02-15T18:23:48.950Z,99.99
2018-02-15T18:24:48.938Z,99.99
2018-02-15T18:26:42.128Z,99.99
2018-02-15T18:27:42.037Z,99.99
2018-02-15T18:29:35.409Z,99.99
2018-02-15T18:30:35.337Z,99.99
2018-02-15T18:32:28.602Z,99.99
2018-02-15T18:33:28.506Z,99.99
2018-02-15T18:35:21.755Z,99.99